Lakeview Estates, Indiana
Current Conditions -  °F | °C
As of 6:53 PM on Friday 28 Nov 2014 (Local Time) from KHUF Reporting Station
Clear Clear  
Wind Chill: 27°   Ceiling: Unl
Heat Index: 36°   Visibility: 10mi
Dew Point: 26°   Wind: 14mph
Humidity: 67%   Direction: 170°S
Pressure: 30.06"   Gusts: NA
Location:  39.3587°N, 87.4056°W
Report Text: KHUF 282353Z 17012KT 10SM CLR 02/M03 A3006 RMK AO2 SLP185 T00221033 10033 20011 56012
Loading
Personal Weather Stations






























Interactive Weather Map New forecast layout! Learn more

10-Day Weather Forecast

Advertisements
Track Severe Weather on mobile